sensor_id;sensor_type;location;lat;lon;timestamp;pressure;altitude;pressure_sealevel;temperature;humidity
12219;BME280;6172;42.646;23.344;2023-02-12T00:00:04;95493.84;;;-0.41;45.85
12219;BME280;6172;42.646;23.344;2023-02-12T00:02:33;95496.84;;;-0.42;46.14
12219;BME280;6172;42.646;23.344;2023-02-12T00:05:00;95503.78;;;-0.41;46.26
12219;BME280;6172;42.646;23.344;2023-02-12T00:07:29;95490.88;;;-0.48;46.22
12219;BME280;6172;42.646;23.344;2023-02-12T00:09:56;95496.22;;;-0.48;46.07
12219;BME280;6172;42.646;23.344;2023-02-12T00:12:23;95476.91;;;-0.53;45.96
12219;BME280;6172;42.646;23.344;2023-02-12T00:14:50;95504.09;;;-0.43;45.99
12219;BME280;6172;42.646;23.344;2023-02-12T00:17:18;95504.88;;;-0.42;46.15
12219;BME280;6172;42.646;23.344;2023-02-12T00:19:46;95508.16;;;-0.37;45.90
12219;BME280;6172;42.646;23.344;2023-02-12T00:22:13;95498.09;;;-0.40;45.86
12219;BME280;6172;42.646;23.344;2023-02-12T00:24:40;95508.16;;;-0.37;45.44
12219;BME280;6172;42.646;23.344;2023-02-12T00:27:07;95503.63;;;-0.45;45.29
12219;BME280;6172;42.646;23.344;2023-02-12T00:29:33;95492.31;;;-0.50;45.37
12219;BME280;6172;42.646;23.344;2023-02-12T00:32:00;95495.31;;;-0.52;45.36
12219;BME280;6172;42.646;23.344;2023-02-12T00:34:29;95493.22;;;-0.46;45.46
12219;BME280;6172;42.646;23.344;2023-02-12T00:36:55;95488.41;;;-0.53;45.82
12219;BME280;6172;42.646;23.344;2023-02-12T00:39:22;95466.34;;;-0.50;45.59
12219;BME280;6172;42.646;23.344;2023-02-12T00:41:49;95483.13;;;-0.41;45.67
12219;BME280;6172;42.646;23.344;2023-02-12T00:44:16;95469.28;;;-0.43;45.79
12219;BME280;6172;42.646;23.344;2023-02-12T00:46:43;95473.41;;;-0.25;45.62
12219;BME280;6172;42.646;23.344;2023-02-12T00:49:10;95477.31;;;-0.43;45.38
12219;BME280;6172;42.646;23.344;2023-02-12T00:51:40;95464.00;;;-0.31;45.83
12219;BME280;6172;42.646;23.344;2023-02-12T00:54:08;95479.19;;;-0.43;45.54
12219;BME280;6172;42.646;23.344;2023-02-12T00:56:34;95467.97;;;-0.37;45.67
12219;BME280;6172;42.646;23.344;2023-02-12T00:59:01;95466.44;;;-0.46;45.73
12219;BME280;6172;42.646;23.344;2023-02-12T01:01:28;95473.41;;;-0.45;45.92
12219;BME280;6172;42.646;23.344;2023-02-12T01:03:55;95455.75;;;-0.46;46.11
12219;BME280;6172;42.646;23.344;2023-02-12T01:06:22;95462.03;;;-0.42;45.88
12219;BME280;6172;42.646;23.344;2023-02-12T01:08:51;95454.53;;;-0.28;45.65
12219;BME280;6172;42.646;23.344;2023-02-12T01:11:19;95456.75;;;-0.30;45.74
12219;BME280;6172;42.646;23.344;2023-02-12T01:13:46;95450.69;;;-0.39;45.61
12219;BME280;6172;42.646;23.344;2023-02-12T01:16:15;95451.28;;;-0.34;45.74
12219;BME280;6172;42.646;23.344;2023-02-12T01:18:42;95449.63;;;-0.26;45.57
12219;BME280;6172;42.646;23.344;2023-02-12T01:21:11;95467.94;;;-0.28;45.90
12219;BME280;6172;42.646;23.344;2023-02-12T01:23:38;95470.66;;;-0.37;46.22
12219;BME280;6172;42.646;23.344;2023-02-12T01:26:07;95474.41;;;-0.29;46.21
12219;BME280;6172;42.646;23.344;2023-02-12T01:28:37;95474.31;;;-0.41;46.27
12219;BME280;6172;42.646;23.344;2023-02-12T01:31:07;95474.63;;;-0.43;46.19
12219;BME280;6172;42.646;23.344;2023-02-12T01:33:35;95486.47;;;-0.23;46.44
12219;BME280;6172;42.646;23.344;2023-02-12T01:36:02;95472.25;;;-0.15;45.91
12219;BME280;6172;42.646;23.344;2023-02-12T01:38:31;95477.25;;;-0.34;46.34
12219;BME280;6172;42.646;23.344;2023-02-12T01:41:02;95463.94;;;-0.43;46.88
12219;BME280;6172;42.646;23.344;2023-02-12T01:43:32;95458.91;;;-0.44;46.72
12219;BME280;6172;42.646;23.344;2023-02-12T01:45:59;95451.66;;;-0.44;46.84
12219;BME280;6172;42.646;23.344;2023-02-12T01:48:30;95453.06;;;-0.46;46.88
12219;BME280;6172;42.646;23.344;2023-02-12T01:50:58;95457.34;;;-0.45;47.01
12219;BME280;6172;42.646;23.344;2023-02-12T01:53:30;95446.75;;;-0.42;47.18
12219;BME280;6172;42.646;23.344;2023-02-12T01:56:01;95444.44;;;-0.52;47.38
12219;BME280;6172;42.646;23.344;2023-02-12T01:58:33;95421.72;;;-0.46;47.47
12219;BME280;6172;42.646;23.344;2023-02-12T02:01:02;95425.97;;;-0.45;47.13
12219;BME280;6172;42.646;23.344;2023-02-12T02:03:30;95431.84;;;-0.51;47.79
12219;BME280;6172;42.646;23.344;2023-02-12T02:06:00;95436.03;;;-0.42;47.43
12219;BME280;6172;42.646;23.344;2023-02-12T02:08:28;95436.25;;;-0.47;47.48
12219;BME280;6172;42.646;23.344;2023-02-12T02:10:56;95438.66;;;-0.54;47.92
12219;BME280;6172;42.646;23.344;2023-02-12T02:13:24;95440.53;;;-0.54;48.04
12219;BME280;6172;42.646;23.344;2023-02-12T02:16:18;95443.72;;;-0.61;48.42
12219;BME280;6172;42.646;23.344;2023-02-12T02:18:52;95445.19;;;-0.43;48.13
12219;BME280;6172;42.646;23.344;2023-02-12T02:21:56;95449.06;;;-0.61;48.52
12219;BME280;6172;42.646;23.344;2023-02-12T02:24:45;95446.47;;;-0.49;48.74
12219;BME280;6172;42.646;23.344;2023-02-12T02:27:23;95447.38;;;-0.45;48.72
12219;BME280;6172;42.646;23.344;2023-02-12T02:30:27;95447.53;;;-0.41;48.83
12219;BME280;6172;42.646;23.344;2023-02-12T02:33:09;95446.47;;;-0.49;49.03
12219;BME280;6172;42.646;23.344;2023-02-12T02:35:44;95449.53;;;-0.59;49.45
12219;BME280;6172;42.646;23.344;2023-02-12T02:38:20;95438.19;;;-0.56;49.51
12219;BME280;6172;42.646;23.344;2023-02-12T02:40:53;95445.25;;;-0.51;49.75
12219;BME280;6172;42.646;23.344;2023-02-12T02:43:25;95436.63;;;-0.57;49.79
12219;BME280;6172;42.646;23.344;2023-02-12T02:45:58;95448.94;;;-0.64;50.36
12219;BME280;6172;42.646;23.344;2023-02-12T02:48:32;95443.16;;;-0.46;50.38
12219;BME280;6172;42.646;23.344;2023-02-12T02:51:04;95450.69;;;-0.39;50.07
12219;BME280;6172;42.646;23.344;2023-02-12T02:53:34;95442.69;;;-0.27;50.29
12219;BME280;6172;42.646;23.344;2023-02-12T02:56:05;95448.72;;;-0.30;50.63
12219;BME280;6172;42.646;23.344;2023-02-12T02:58:36;95449.81;;;-0.52;51.34
12219;BME280;6172;42.646;23.344;2023-02-12T03:01:08;95457.78;;;-0.43;51.78
12219;BME280;6172;42.646;23.344;2023-02-12T03:03:41;95458.72;;;-0.39;51.73
12219;BME280;6172;42.646;23.344;2023-02-12T03:06:19;95449.50;;;-0.30;51.82
12219;BME280;6172;42.646;23.344;2023-02-12T03:08:50;95444.47;;;-0.31;51.96
12219;BME280;6172;42.646;23.344;2023-02-12T03:11:21;95449.09;;;-0.40;52.33
12219;BME280;6172;42.646;23.344;2023-02-12T03:13:55;95439.25;;;-0.48;52.68
12219;BME280;6172;42.646;23.344;2023-02-12T03:16:26;95441.59;;;-0.26;52.30
12219;BME280;6172;42.646;23.344;2023-02-12T03:19:00;95440.09;;;-0.15;52.00
12219;BME280;6172;42.646;23.344;2023-02-12T03:21:32;95433.53;;;-0.26;52.45
12219;BME280;6172;42.646;23.344;2023-02-12T03:24:06;95427.28;;;-0.30;52.80
12219;BME280;6172;42.646;23.344;2023-02-12T03:26:41;95435.91;;;-0.25;52.48
12219;BME280;6172;42.646;23.344;2023-02-12T03:29:09;95434.75;;;-0.15;52.52
12219;BME280;6172;42.646;23.344;2023-02-12T03:31:45;95426.50;;;-0.10;52.83
12219;BME280;6172;42.646;23.344;2023-02-12T03:34:23;95423.13;;;-0.19;52.80
12219;BME280;6172;42.646;23.344;2023-02-12T03:36:54;95424.13;;;-0.12;52.72
12219;BME280;6172;42.646;23.344;2023-02-12T03:39:28;95428.97;;;-0.05;53.19
12219;BME280;6172;42.646;23.344;2023-02-12T03:42:01;95430.34;;;-0.20;53.07
12219;BME280;6172;42.646;23.344;2023-02-12T03:44:43;95430.22;;;-0.23;53.41
12219;BME280;6172;42.646;23.344;2023-02-12T03:47:22;95428.59;;;-0.36;54.22
12219;BME280;6172;42.646;23.344;2023-02-12T03:49:56;95426.13;;;-0.41;54.47
12219;BME280;6172;42.646;23.344;2023-02-12T03:52:28;95430.28;;;-0.32;54.66
12219;BME280;6172;42.646;23.344;2023-02-12T03:54:55;95428.88;;;-0.29;55.01
12219;BME280;6172;42.646;23.344;2023-02-12T03:57:25;95424.28;;;-0.29;55.04
12219;BME280;6172;42.646;23.344;2023-02-12T03:59:56;95437.03;;;-0.26;54.75
12219;BME280;6172;42.646;23.344;2023-02-12T04:02:25;95431.34;;;-0.24;54.89
12219;BME280;6172;42.646;23.344;2023-02-12T04:04:52;95429.53;;;-0.32;55.49
12219;BME280;6172;42.646;23.344;2023-02-12T04:07:19;95423.91;;;-0.39;55.50
12219;BME280;6172;42.646;23.344;2023-02-12T04:09:47;95427.28;;;-0.30;55.88
12219;BME280;6172;42.646;23.344;2023-02-12T04:12:36;95428.41;;;-0.31;56.45
12219;BME280;6172;42.646;23.344;2023-02-12T04:15:27;95430.88;;;-0.26;56.12
12219;BME280;6172;42.646;23.344;2023-02-12T04:18:03;95444.31;;;-0.55;56.63
12219;BME280;6172;42.646;23.344;2023-02-12T04:20:40;95433.03;;;-0.40;57.16
12219;BME280;6172;42.646;23.344;2023-02-12T04:23:16;95443.16;;;-0.25;56.82
12219;BME280;6172;42.646;23.344;2023-02-12T04:25:53;95454.47;;;-0.20;56.53
12219;BME280;6172;42.646;23.344;2023-02-12T04:28:27;95460.53;;;-0.31;56.99
12219;BME280;6172;42.646;23.344;2023-02-12T04:31:01;95455.31;;;-0.48;57.83
12219;BME280;6172;42.646;23.344;2023-02-12T04:33:35;95445.84;;;-0.25;57.80
12219;BME280;6172;42.646;23.344;2023-02-12T04:36:09;95456.38;;;-0.49;57.63
12219;BME280;6172;42.646;23.344;2023-02-12T04:38:42;95460.84;;;-0.53;58.42
12219;BME280;6172;42.646;23.344;2023-02-12T04:41:12;95450.50;;;-0.63;58.75
12219;BME280;6172;42.646;23.344;2023-02-12T04:43:39;95460.00;;;-0.45;59.04
12219;BME280;6172;42.646;23.344;2023-02-12T04:46:07;95462.91;;;-0.59;59.32
12219;BME280;6172;42.646;23.344;2023-02-12T04:48:41;95458.75;;;-0.48;58.88
12219;BME280;6172;42.646;23.344;2023-02-12T04:51:11;95469.84;;;-0.58;59.69
12219;BME280;6172;42.646;23.344;2023-02-12T04:53:38;95470.34;;;-0.64;59.73
12219;BME280;6172;42.646;23.344;2023-02-12T04:56:07;95470.34;;;-0.64;59.94
12219;BME280;6172;42.646;23.344;2023-02-12T04:58:37;95455.59;;;-0.70;60.10
12219;BME280;6172;42.646;23.344;2023-02-12T05:01:04;95465.53;;;-0.50;59.87
12219;BME280;6172;42.646;23.344;2023-02-12T05:03:31;95469.44;;;-0.68;60.61
12219;BME280;6172;42.646;23.344;2023-02-12T05:06:03;95469.50;;;-0.77;61.14
12219;BME280;6172;42.646;23.344;2023-02-12T05:08:31;95468.38;;;-0.76;61.83
12219;BME280;6172;42.646;23.344;2023-02-12T05:11:03;95471.66;;;-0.70;61.69
12219;BME280;6172;42.646;23.344;2023-02-12T05:13:30;95474.53;;;-0.75;62.37
12219;BME280;6172;42.646;23.344;2023-02-12T05:15:57;95472.28;;;-0.73;62.21
12219;BME280;6172;42.646;23.344;2023-02-12T05:18:24;95476.41;;;-0.76;61.69
12219;BME280;6172;42.646;23.344;2023-02-12T05:20:55;95479.19;;;-0.64;61.68
12219;BME280;6172;42.646;23.344;2023-02-12T05:23:25;95483.47;;;-0.71;60.58
12219;BME280;6172;42.646;23.344;2023-02-12T05:25:53;95488.50;;;-0.70;60.07
12219;BME280;6172;42.646;23.344;2023-02-12T05:28:20;95493.16;;;-0.58;60.02
12219;BME280;6172;42.646;23.344;2023-02-12T05:30:47;95491.19;;;-0.49;61.06
12219;BME280;6172;42.646;23.344;2023-02-12T05:33:13;95499.44;;;-0.54;64.55
12219;BME280;6172;42.646;23.344;2023-02-12T05:35:40;95500.72;;;-0.60;65.43
12219;BME280;6172;42.646;23.344;2023-02-12T05:38:07;95499.81;;;-0.64;66.31
12219;BME280;6172;42.646;23.344;2023-02-12T05:40:36;95502.31;;;-0.68;66.90
12219;BME280;6172;42.646;23.344;2023-02-12T05:43:06;95513.22;;;-0.73;68.08
12219;BME280;6172;42.646;23.344;2023-02-12T05:45:33;95511.91;;;-0.58;68.00
12219;BME280;6172;42.646;23.344;2023-02-12T05:48:03;95516.34;;;-0.62;71.19
12219;BME280;6172;42.646;23.344;2023-02-12T05:50:30;95512.28;;;-0.48;72.50
12219;BME280;6172;42.646;23.344;2023-02-12T05:52:58;95523.16;;;-0.44;72.50
12219;BME280;6172;42.646;23.344;2023-02-12T05:55:27;95507.09;;;-0.73;74.90
12219;BME280;6172;42.646;23.344;2023-02-12T05:57:56;95522.06;;;-0.72;77.26
12219;BME280;6172;42.646;23.344;2023-02-12T06:00:23;95526.28;;;-0.71;80.49
12219;BME280;6172;42.646;23.344;2023-02-12T06:02:51;95527.78;;;-0.91;82.63
12219;BME280;6172;42.646;23.344;2023-02-12T06:05:17;95527.41;;;-0.72;83.60
12219;BME280;6172;42.646;23.344;2023-02-12T06:07:44;95525.44;;;-0.63;84.44
12219;BME280;6172;42.646;23.344;2023-02-12T06:10:11;95542.63;;;-0.64;87.36
12219;BME280;6172;42.646;23.344;2023-02-12T06:12:38;95533.41;;;-0.75;91.75
12219;BME280;6172;42.646;23.344;2023-02-12T06:15:08;95534.97;;;-0.74;94.86
12219;BME280;6172;42.646;23.344;2023-02-12T06:17:35;95539.16;;;-0.65;97.66
12219;BME280;6172;42.646;23.344;2023-02-12T06:20:02;95535.44;;;-0.72;100.00
12219;BME280;6172;42.646;23.344;2023-02-12T06:22:29;95538.13;;;-0.72;100.00
12219;BME280;6172;42.646;23.344;2023-02-12T06:24:56;95538.44;;;-0.82;100.00
12219;BME280;6172;42.646;23.344;2023-02-12T06:27:23;95537.50;;;-0.86;100.00
12219;BME280;6172;42.646;23.344;2023-02-12T06:29:53;95540.00;;;-0.73;100.00
12219;BME280;6172;42.646;23.344;2023-02-12T06:32:22;95547.88;;;-0.76;100.00
12219;BME280;6172;42.646;23.344;2023-02-12T06:34:49;95552.78;;;-0.78;100.00
12219;BME280;6172;42.646;23.344;2023-02-12T06:37:15;95556.72;;;-0.84;100.00
12219;BME280;6172;42.646;23.344;2023-02-12T06:39:42;95549.34;;;-0.87;100.00
12219;BME280;6172;42.646;23.344;2023-02-12T06:42:10;95557.94;;;-0.73;100.00
12219;BME280;6172;42.646;23.344;2023-02-12T06:44:39;95552.94;;;-0.83;100.00
12219;BME280;6172;42.646;23.344;2023-02-12T06:47:14;95548.06;;;-0.81;100.00
12219;BME280;6172;42.646;23.344;2023-02-12T06:49:43;95550.94;;;-0.95;100.00
12219;BME280;6172;42.646;23.344;2023-02-12T06:52:10;95538.19;;;-0.98;100.00
12219;BME280;6172;42.646;23.344;2023-02-12T06:54:38;95530.13;;;-0.89;100.00
12219;BME280;6172;42.646;23.344;2023-02-12T06:57:08;95544.75;;;-0.78;100.00
12219;BME280;6172;42.646;23.344;2023-02-12T06:59:35;95538.56;;;-0.70;100.00
12219;BME280;6172;42.646;23.344;2023-02-12T07:02:02;95538.00;;;-0.84;100.00
12219;BME280;6172;42.646;23.344;2023-02-12T07:04:29;95547.59;;;-0.83;100.00
12219;BME280;6172;42.646;23.344;2023-02-12T07:06:58;95550.91;;;-0.86;100.00
12219;BME280;6172;42.646;23.344;2023-02-12T07:09:25;95542.88;;;-0.86;100.00
12219;BME280;6172;42.646;23.344;2023-02-12T07:11:51;95550.63;;;-0.06;100.00
12219;BME280;6172;42.646;23.344;2023-02-12T07:14:20;95550.53;;;-0.10;100.00
12219;BME280;6172;42.646;23.344;2023-02-12T07:16:47;95551.97;;;-0.41;100.00
12219;BME280;6172;42.646;23.344;2023-02-12T07:19:15;95558.72;;;-0.35;100.00
12219;BME280;6172;42.646;23.344;2023-02-12T07:21:42;95560.00;;;-0.41;100.00
12219;BME280;6172;42.646;23.344;2023-02-12T07:24:10;95556.78;;;-0.55;100.00
12219;BME280;6172;42.646;23.344;2023-02-12T07:26:38;95560.81;;;-0.49;100.00
12219;BME280;6172;42.646;23.344;2023-02-12T07:29:06;95546.69;;;-0.58;100.00
12219;BME280;6172;42.646;23.344;2023-02-12T07:31:33;95554.69;;;-0.50;100.00
12219;BME280;6172;42.646;23.344;2023-02-12T07:34:00;95552.19;;;-0.55;100.00
12219;BME280;6172;42.646;23.344;2023-02-12T07:36:30;95562.88;;;-0.55;100.00
12219;BME280;6172;42.646;23.344;2023-02-12T07:38:58;95559.91;;;-0.53;100.00
12219;BME280;6172;42.646;23.344;2023-02-12T07:41:32;95571.28;;;-0.65;100.00
12219;BME280;6172;42.646;23.344;2023-02-12T07:44:02;95569.91;;;-0.79;100.00
12219;BME280;6172;42.646;23.344;2023-02-12T07:46:33;95575.59;;;-0.72;100.00
12219;BME280;6172;42.646;23.344;2023-02-12T07:49:03;95572.91;;;-0.72;100.00
12219;BME280;6172;42.646;23.344;2023-02-12T07:51:32;95575.78;;;-0.86;100.00
12219;BME280;6172;42.646;23.344;2023-02-12T07:53:59;95574.19;;;-0.78;100.00
12219;BME280;6172;42.646;23.344;2023-02-12T07:56:29;95565.69;;;-0.80;100.00
12219;BME280;6172;42.646;23.344;2023-02-12T07:58:58;95580.44;;;-0.66;100.00
12219;BME280;6172;42.646;23.344;2023-02-12T08:01:27;95580.19;;;-0.90;100.00
12219;BME280;6172;42.646;23.344;2023-02-12T08:03:57;95578.47;;;-0.94;100.00
12219;BME280;6172;42.646;23.344;2023-02-12T08:06:26;95583.66;;;-0.98;100.00
12219;BME280;6172;42.646;23.344;2023-02-12T08:08:55;95579.06;;;-0.80;100.00
12219;BME280;6172;42.646;23.344;2023-02-12T08:11:23;95578.47;;;-0.94;100.00
12219;BME280;6172;42.646;23.344;2023-02-12T08:13:55;95581.16;;;-0.94;100.00
12219;BME280;6172;42.646;23.344;2023-02-12T08:16:26;95589.34;;;-0.99;100.00
12219;BME280;6172;42.646;23.344;2023-02-12T08:18:54;95583.97;;;-0.99;100.00
12219;BME280;6172;42.646;23.344;2023-02-12T08:21:23;95584.94;;;-0.95;100.00
12219;BME280;6172;42.646;23.344;2023-02-12T08:23:52;95588.44;;;-1.12;100.00
12219;BME280;6172;42.646;23.344;2023-02-12T08:26:22;95595.97;;;-1.05;100.00
12219;BME280;6172;42.646;23.344;2023-02-12T08:28:53;95604.31;;;-0.98;100.00
12219;BME280;6172;42.646;23.344;2023-02-12T08:31:23;95606.97;;;-0.90;100.00
12219;BME280;6172;42.646;23.344;2023-02-12T08:33:54;95609.81;;;-1.03;100.00
12219;BME280;6172;42.646;23.344;2023-02-12T08:36:23;95615.00;;;-0.98;100.00
12219;BME280;6172;42.646;23.344;2023-02-12T08:38:51;95613.72;;;-1.01;100.00
12219;BME280;6172;42.646;23.344;2023-02-12T08:41:20;95613.56;;;-0.96;100.00
12219;BME280;6172;42.646;23.344;2023-02-12T08:43:47;95621.59;;;-0.87;100.00
12219;BME280;6172;42.646;23.344;2023-02-12T08:46:17;95617.03;;;-0.87;100.00
12219;BME280;6172;42.646;23.344;2023-02-12T08:48:45;95618.16;;;-1.05;100.00
12219;BME280;6172;42.646;23.344;2023-02-12T08:51:15;95626.63;;;-0.94;100.00
12219;BME280;6172;42.646;23.344;2023-02-12T08:53:47;95621.25;;;-0.86;100.00
12219;BME280;6172;42.646;23.344;2023-02-12T08:56:16;95631.03;;;-0.81;100.00
12219;BME280;6172;42.646;23.344;2023-02-12T08:58:45;95630.16;;;-0.65;100.00
12219;BME280;6172;42.646;23.344;2023-02-12T09:01:14;95624.53;;;-0.72;100.00
12219;BME280;6172;42.646;23.344;2023-02-12T09:03:43;95647.81;;;-0.55;100.00
12219;BME280;6172;42.646;23.344;2023-02-12T09:06:11;95645.41;;;-0.48;100.00
12219;BME280;6172;42.646;23.344;2023-02-12T09:08:40;95652.00;;;-0.46;100.00
12219;BME280;6172;42.646;23.344;2023-02-12T09:11:09;95636.00;;;-0.63;100.00
12219;BME280;6172;42.646;23.344;2023-02-12T09:13:37;95648.09;;;-0.48;100.00
12219;BME280;6172;42.646;23.344;2023-02-12T09:16:06;95646.78;;;-0.34;100.00
12219;BME280;6172;42.646;23.344;2023-02-12T09:18:36;95651.47;;;-0.22;100.00
12219;BME280;6172;42.646;23.344;2023-02-12T09:21:06;95653.50;;;-0.19;100.00
12219;BME280;6172;42.646;23.344;2023-02-12T09:23:35;95651.78;;;-0.24;100.00
12219;BME280;6172;42.646;23.344;2023-02-12T09:26:03;95655.69;;;-0.21;100.00
12219;BME280;6172;42.646;23.344;2023-02-12T09:28:30;95667.56;;;-0.31;100.00
12219;BME280;6172;42.646;23.344;2023-02-12T09:30:57;95663.31;;;-0.40;100.00
12219;BME280;6172;42.646;23.344;2023-02-12T09:33:34;95658.13;;;-0.37;100.00
12219;BME280;6172;42.646;23.344;2023-02-12T09:36:02;95656.69;;;-0.34;100.00
12219;BME280;6172;42.646;23.344;2023-02-12T09:38:31;95660.13;;;-0.25;100.00
12219;BME280;6172;42.646;23.344;2023-02-12T09:41:14;95670.38;;;-0.27;100.00
12219;BME280;6172;42.646;23.344;2023-02-12T09:43:50;95665.88;;;-0.44;100.00
12219;BME280;6172;42.646;23.344;2023-02-12T09:46:26;95657.00;;;-0.36;100.00
12219;BME280;6172;42.646;23.344;2023-02-12T09:49:02;95657.47;;;-0.25;100.00
12219;BME280;6172;42.646;23.344;2023-02-12T09:51:34;95662.94;;;-0.22;100.00
12219;BME280;6172;42.646;23.344;2023-02-12T09:54:06;95670.56;;;-0.03;100.00
12219;BME280;6172;42.646;23.344;2023-02-12T09:56:37;95654.75;;;-0.17;100.00
12219;BME280;6172;42.646;23.344;2023-02-12T09:59:10;95671.31;;;0.06;100.00
12219;BME280;6172;42.646;23.344;2023-02-12T10:01:48;95666.41;;;0.16;100.00
12219;BME280;6172;42.646;23.344;2023-02-12T10:04:15;95668.16;;;0.12;100.00
12219;BME280;6172;42.646;23.344;2023-02-12T10:06:49;95670.19;;;0.15;100.00
12219;BME280;6172;42.646;23.344;2023-02-12T10:09:33;95663.50;;;0.21;100.00
12219;BME280;6172;42.646;23.344;2023-02-12T10:12:11;95667.25;;;0.29;100.00
12219;BME280;6172;42.646;23.344;2023-02-12T10:14:55;95666.69;;;0.44;100.00
12219;BME280;6172;42.646;23.344;2023-02-12T10:17:34;95661.88;;;0.58;100.00
12219;BME280;6172;42.646;23.344;2023-02-12T10:20:39;95660.75;;;0.79;100.00
12219;BME280;6172;42.646;23.344;2023-02-12T10:23:26;95657.84;;;1.05;100.00
12219;BME280;6172;42.646;23.344;2023-02-12T10:25:58;95657.75;;;1.02;100.00
12219;BME280;6172;42.646;23.344;2023-02-12T10:28:32;95660.47;;;0.93;100.00
12219;BME280;6172;42.646;23.344;2023-02-12T10:31:02;95667.81;;;0.84;100.00
12219;BME280;6172;42.646;23.344;2023-02-12T10:33:36;95674.09;;;1.09;100.00
12219;BME280;6172;42.646;23.344;2023-02-12T10:36:15;95670.28;;;0.89;100.00
12219;BME280;6172;42.646;23.344;2023-02-12T10:38:48;95677.19;;;0.78;100.00
12219;BME280;6172;42.646;23.344;2023-02-12T10:41:18;95669.31;;;0.73;100.00
12219;BME280;6172;42.646;23.344;2023-02-12T10:43:57;95671.94;;;0.81;100.00
12219;BME280;6172;42.646;23.344;2023-02-12T10:46:24;95672.97;;;0.89;100.00
12219;BME280;6172;42.646;23.344;2023-02-12T10:48:55;95677.13;;;0.87;100.00
12219;BME280;6172;42.646;23.344;2023-02-12T10:51:37;95674.81;;;0.76;100.00
12219;BME280;6172;42.646;23.344;2023-02-12T10:54:33;95673.44;;;0.91;100.00
12219;BME280;6172;42.646;23.344;2023-02-12T10:57:12;95676.25;;;0.95;100.00
12219;BME280;6172;42.646;23.344;2023-02-12T10:59:41;95681.03;;;0.89;100.00
12219;BME280;6172;42.646;23.344;2023-02-12T11:02:22;95677.13;;;0.87;100.00
12219;BME280;6172;42.646;23.344;2023-02-12T11:04:49;95678.47;;;1.13;100.00
12219;BME280;6172;42.646;23.344;2023-02-12T11:07:18;95684.19;;;1.12;100.00
12219;BME280;6172;42.646;23.344;2023-02-12T11:09:47;95681.22;;;1.05;100.00
12219;BME280;6172;42.646;23.344;2023-02-12T11:12:34;95680.44;;;1.04;100.00
12219;BME280;6172;42.646;23.344;2023-02-12T11:15:03;95676.72;;;1.29;100.00
12219;BME280;6172;42.646;23.344;2023-02-12T11:17:36;95664.66;;;1.35;100.00
12219;BME280;6172;42.646;23.344;2023-02-12T11:20:21;95659.78;;;1.49;100.00
12219;BME280;6172;42.646;23.344;2023-02-12T11:22:53;95663.16;;;1.58;100.00
12219;BME280;6172;42.646;23.344;2023-02-12T11:25:22;95672.59;;;1.64;100.00
12219;BME280;6172;42.646;23.344;2023-02-12T11:28:13;95667.00;;;1.81;100.00
12219;BME280;6172;42.646;23.344;2023-02-12T11:30:57;95660.16;;;1.84;100.00
12219;BME280;6172;42.646;23.344;2023-02-12T11:33:30;95667.56;;;1.75;100.00
12219;BME280;6172;42.646;23.344;2023-02-12T11:35:59;95655.59;;;2.08;100.00
12219;BME280;6172;42.646;23.344;2023-02-12T11:38:30;95654.25;;;2.02;100.00
12219;BME280;6172;42.646;23.344;2023-02-12T11:41:04;95644.72;;;2.17;100.00
12219;BME280;6172;42.646;23.344;2023-02-12T11:43:34;95647.97;;;2.34;100.00
12219;BME280;6172;42.646;23.344;2023-02-12T11:46:05;95658.50;;;2.27;100.00
12219;BME280;6172;42.646;23.344;2023-02-12T11:48:36;95649.66;;;2.27;100.00
12219;BME280;6172;42.646;23.344;2023-02-12T11:51:06;95653.94;;;2.28;100.00
12219;BME280;6172;42.646;23.344;2023-02-12T11:53:36;95652.59;;;2.22;100.00
12219;BME280;6172;42.646;23.344;2023-02-12T11:56:07;95657.06;;;2.42;100.00
12219;BME280;6172;42.646;23.344;2023-02-12T11:58:38;95656.78;;;2.59;100.00
12219;BME280;6172;42.646;23.344;2023-02-12T12:01:12;95658.94;;;2.53;100.00
12219;BME280;6172;42.646;23.344;2023-02-12T12:03:49;95663.19;;;2.54;100.00
12219;BME280;6172;42.646;23.344;2023-02-12T12:06:26;95667.00;;;2.53;100.00
12219;BME280;6172;42.646;23.344;2023-02-12T12:09:02;95662.56;;;2.33;100.00
12219;BME280;6172;42.646;23.344;2023-02-12T12:11:40;95658.72;;;2.34;100.00
12219;BME280;6172;42.646;23.344;2023-02-12T12:14:17;95656.59;;;2.40;100.00
12219;BME280;6172;42.646;23.344;2023-02-12T12:16:53;95662.66;;;2.37;100.00
12219;BME280;6172;42.646;23.344;2023-02-12T12:19:47;95657.59;;;2.47;100.00
12219;BME280;6172;42.646;23.344;2023-02-12T12:22:25;95661.88;;;2.36;100.00
12219;BME280;6172;42.646;23.344;2023-02-12T12:24:57;95663.19;;;2.54;100.00
12219;BME280;6172;42.646;23.344;2023-02-12T12:27:33;95664.19;;;2.62;100.00
12219;BME280;6172;42.646;23.344;2023-02-12T12:30:27;95669.56;;;2.62;100.00
12219;BME280;6172;42.646;23.344;2023-02-12T12:33:03;95674.75;;;2.43;100.00
12219;BME280;6172;42.646;23.344;2023-02-12T12:35:38;95669.38;;;2.43;100.00
12219;BME280;6172;42.646;23.344;2023-02-12T12:38:18;95667.56;;;2.47;100.00
12219;BME280;6172;42.646;23.344;2023-02-12T12:40:57;95679.34;;;2.54;100.00
12219;BME280;6172;42.646;23.344;2023-02-12T12:43:38;95678.31;;;2.71;100.00
12219;BME280;6172;42.646;23.344;2023-02-12T12:46:30;95678.44;;;2.62;100.00
12219;BME280;6172;42.646;23.344;2023-02-12T12:52:06;95685.00;;;2.89;100.00
12219;BME280;6172;42.646;23.344;2023-02-12T12:54:48;95685.66;;;2.86;99.52
12219;BME280;6172;42.646;23.344;2023-02-12T12:57:29;95691.31;;;2.81;100.00
12219;BME280;6172;42.646;23.344;2023-02-12T13:00:18;95689.84;;;2.83;100.00
12219;BME280;6172;42.646;23.344;2023-02-12T13:03:04;95691.78;;;2.71;98.38
12219;BME280;6172;42.646;23.344;2023-02-12T13:06:07;95696.81;;;2.48;98.67
12219;BME280;6172;42.646;23.344;2023-02-12T13:08:59;95689.88;;;2.59;100.00
12219;BME280;6172;42.646;23.344;2023-02-12T13:11:36;95703.78;;;2.49;100.00
12219;BME280;6172;42.646;23.344;2023-02-12T13:14:18;95700.41;;;2.28;100.00
12219;BME280;6172;42.646;23.344;2023-02-12T13:16:54;95695.94;;;2.08;100.00
12219;BME280;6172;42.646;23.344;2023-02-12T13:19:37;95701.19;;;1.93;100.00
12219;BME280;6172;42.646;23.344;2023-02-12T13:22:11;95702.19;;;2.12;100.00
12219;BME280;6172;42.646;23.344;2023-02-12T13:24:42;95706.03;;;2.11;100.00